sensor_id;sensor_type;location;lat;lon;timestamp;temperature;humidity
14755;DHT22;7469;50.906;6.952;2022-12-29T00:01:46;11.40;99.90
14755;DHT22;7469;50.906;6.952;2022-12-29T00:04:15;11.40;99.90
14755;DHT22;7469;50.906;6.952;2022-12-29T00:06:43;11.40;99.90
14755;DHT22;7469;50.906;6.952;2022-12-29T00:09:11;11.40;99.90
14755;DHT22;7469;50.906;6.952;2022-12-29T00:11:40;11.40;99.90
14755;DHT22;7469;50.906;6.952;2022-12-29T00:14:09;11.40;99.90
14755;DHT22;7469;50.906;6.952;2022-12-29T00:16:56;11.50;99.90
14755;DHT22;7469;50.906;6.952;2022-12-29T00:19:24;11.40;99.90
14755;DHT22;7469;50.906;6.952;2022-12-29T00:22:11;11.40;99.90
14755;DHT22;7469;50.906;6.952;2022-12-29T00:24:56;11.50;99.90
14755;DHT22;7469;50.906;6.952;2022-12-29T00:27:43;11.50;99.90
14755;DHT22;7469;50.906;6.952;2022-12-29T00:30:33;11.50;99.90
14755;DHT22;7469;50.906;6.952;2022-12-29T00:33:26;11.60;99.90
14755;DHT22;7469;50.906;6.952;2022-12-29T00:36:16;11.60;99.90
14755;DHT22;7469;50.906;6.952;2022-12-29T00:38:48;11.60;99.90
14755;DHT22;7469;50.906;6.952;2022-12-29T00:41:34;11.60;99.90
14755;DHT22;7469;50.906;6.952;2022-12-29T00:44:20;11.70;99.90
14755;DHT22;7469;50.906;6.952;2022-12-29T00:46:48;11.70;99.90
14755;DHT22;7469;50.906;6.952;2022-12-29T00:49:17;11.70;99.90
14755;DHT22;7469;50.906;6.952;2022-12-29T00:52:03;11.80;99.90
14755;DHT22;7469;50.906;6.952;2022-12-29T00:54:33;11.80;99.90
14755;DHT22;7469;50.906;6.952;2022-12-29T00:57:02;11.80;99.90
14755;DHT22;7469;50.906;6.952;2022-12-29T00:59:30;11.80;99.90
14755;DHT22;7469;50.906;6.952;2022-12-29T01:01:59;11.80;99.90
14755;DHT22;7469;50.906;6.952;2022-12-29T01:04:29;11.90;99.90
14755;DHT22;7469;50.906;6.952;2022-12-29T01:06:57;11.90;99.90
14755;DHT22;7469;50.906;6.952;2022-12-29T01:09:25;11.80;99.90
14755;DHT22;7469;50.906;6.952;2022-12-29T01:12:11;11.90;99.90
14755;DHT22;7469;50.906;6.952;2022-12-29T01:14:43;11.90;99.90
14755;DHT22;7469;50.906;6.952;2022-12-29T01:17:11;11.90;99.90
14755;DHT22;7469;50.906;6.952;2022-12-29T01:19:41;11.90;99.90
14755;DHT22;7469;50.906;6.952;2022-12-29T01:22:09;11.90;99.90
14755;DHT22;7469;50.906;6.952;2022-12-29T01:24:36;11.90;99.90
14755;DHT22;7469;50.906;6.952;2022-12-29T01:27:07;12.00;99.90
14755;DHT22;7469;50.906;6.952;2022-12-29T01:29:35;12.00;99.90
14755;DHT22;7469;50.906;6.952;2022-12-29T01:32:03;12.00;99.90
14755;DHT22;7469;50.906;6.952;2022-12-29T01:34:31;12.00;99.90
14755;DHT22;7469;50.906;6.952;2022-12-29T01:37:01;12.10;99.90
14755;DHT22;7469;50.906;6.952;2022-12-29T01:39:29;12.10;99.90
14755;DHT22;7469;50.906;6.952;2022-12-29T01:41:57;12.20;99.90
14755;DHT22;7469;50.906;6.952;2022-12-29T01:44:47;12.20;99.90
14755;DHT22;7469;50.906;6.952;2022-12-29T01:47:21;12.30;99.90
14755;DHT22;7469;50.906;6.952;2022-12-29T01:49:54;12.40;99.90
14755;DHT22;7469;50.906;6.952;2022-12-29T01:52:27;12.40;99.90
14755;DHT22;7469;50.906;6.952;2022-12-29T01:54:57;12.40;99.90
14755;DHT22;7469;50.906;6.952;2022-12-29T01:57:29;12.40;99.90
14755;DHT22;7469;50.906;6.952;2022-12-29T02:00:02;12.50;99.90
14755;DHT22;7469;50.906;6.952;2022-12-29T02:02:34;12.50;99.90
14755;DHT22;7469;50.906;6.952;2022-12-29T02:05:06;12.50;99.90
14755;DHT22;7469;50.906;6.952;2022-12-29T02:07:37;12.50;99.90
14755;DHT22;7469;50.906;6.952;2022-12-29T02:10:06;12.50;99.90
14755;DHT22;7469;50.906;6.952;2022-12-29T02:12:35;12.50;99.90
14755;DHT22;7469;50.906;6.952;2022-12-29T02:15:04;12.50;99.90
14755;DHT22;7469;50.906;6.952;2022-12-29T02:17:42;12.50;99.90
14755;DHT22;7469;50.906;6.952;2022-12-29T02:20:37;12.50;99.90
14755;DHT22;7469;50.906;6.952;2022-12-29T02:26:22;12.50;99.90
14755;DHT22;7469;50.906;6.952;2022-12-29T02:29:09;12.50;99.90
14755;DHT22;7469;50.906;6.952;2022-12-29T02:31:47;12.50;99.90
14755;DHT22;7469;50.906;6.952;2022-12-29T02:34:24;12.50;99.90
14755;DHT22;7469;50.906;6.952;2022-12-29T02:37:00;12.50;99.90
14755;DHT22;7469;50.906;6.952;2022-12-29T02:39:36;12.50;99.90
14755;DHT22;7469;50.906;6.952;2022-12-29T02:42:10;12.50;99.90
14755;DHT22;7469;50.906;6.952;2022-12-29T02:44:48;12.50;99.90
14755;DHT22;7469;50.906;6.952;2022-12-29T02:47:25;12.50;99.90
14755;DHT22;7469;50.906;6.952;2022-12-29T02:49:58;12.50;99.90
14755;DHT22;7469;50.906;6.952;2022-12-29T02:52:31;12.50;99.90
14755;DHT22;7469;50.906;6.952;2022-12-29T02:55:00;12.50;99.90
14755;DHT22;7469;50.906;6.952;2022-12-29T02:57:32;12.50;99.90
14755;DHT22;7469;50.906;6.952;2022-12-29T03:00:04;12.50;99.90
14755;DHT22;7469;50.906;6.952;2022-12-29T03:02:52;12.50;99.90
14755;DHT22;7469;50.906;6.952;2022-12-29T03:05:47;12.50;99.90
14755;DHT22;7469;50.906;6.952;2022-12-29T03:08:24;12.50;99.90
14755;DHT22;7469;50.906;6.952;2022-12-29T03:10:59;12.40;99.90
14755;DHT22;7469;50.906;6.952;2022-12-29T03:13:39;12.40;99.90
14755;DHT22;7469;50.906;6.952;2022-12-29T03:16:34;12.40;99.90
14755;DHT22;7469;50.906;6.952;2022-12-29T03:19:08;12.40;99.90
14755;DHT22;7469;50.906;6.952;2022-12-29T03:21:41;12.30;99.90
14755;DHT22;7469;50.906;6.952;2022-12-29T03:24:29;12.30;99.90
14755;DHT22;7469;50.906;6.952;2022-12-29T03:27:02;12.30;99.90
14755;DHT22;7469;50.906;6.952;2022-12-29T03:29:33;12.30;99.90
14755;DHT22;7469;50.906;6.952;2022-12-29T03:32:05;12.30;99.90
14755;DHT22;7469;50.906;6.952;2022-12-29T03:34:37;12.20;99.90
14755;DHT22;7469;50.906;6.952;2022-12-29T03:37:12;12.20;99.90
14755;DHT22;7469;50.906;6.952;2022-12-29T03:39:40;12.20;99.90
14755;DHT22;7469;50.906;6.952;2022-12-29T03:42:12;12.20;99.90
14755;DHT22;7469;50.906;6.952;2022-12-29T03:44:43;12.20;99.90
14755;DHT22;7469;50.906;6.952;2022-12-29T03:47:13;12.30;99.90
14755;DHT22;7469;50.906;6.952;2022-12-29T03:49:44;12.30;99.90
14755;DHT22;7469;50.906;6.952;2022-12-29T03:52:12;12.30;99.90
14755;DHT22;7469;50.906;6.952;2022-12-29T03:54:40;12.30;99.90
14755;DHT22;7469;50.906;6.952;2022-12-29T03:57:09;12.30;99.90
14755;DHT22;7469;50.906;6.952;2022-12-29T03:59:37;12.20;99.90
14755;DHT22;7469;50.906;6.952;2022-12-29T04:02:05;12.20;99.90
14755;DHT22;7469;50.906;6.952;2022-12-29T04:04:35;12.20;99.90
14755;DHT22;7469;50.906;6.952;2022-12-29T04:07:04;12.10;99.90
14755;DHT22;7469;50.906;6.952;2022-12-29T04:09:32;12.10;99.90
14755;DHT22;7469;50.906;6.952;2022-12-29T04:12:00;12.00;99.90
14755;DHT22;7469;50.906;6.952;2022-12-29T04:14:28;12.00;99.90
14755;DHT22;7469;50.906;6.952;2022-12-29T04:16:56;12.00;99.90
14755;DHT22;7469;50.906;6.952;2022-12-29T04:19:24;12.00;99.90
14755;DHT22;7469;50.906;6.952;2022-12-29T04:21:52;11.90;99.90
14755;DHT22;7469;50.906;6.952;2022-12-29T04:24:21;11.90;99.90
14755;DHT22;7469;50.906;6.952;2022-12-29T04:26:49;11.90;99.90
14755;DHT22;7469;50.906;6.952;2022-12-29T04:29:17;11.90;99.90
14755;DHT22;7469;50.906;6.952;2022-12-29T04:31:45;11.90;99.90
14755;DHT22;7469;50.906;6.952;2022-12-29T04:34:13;11.80;99.90
14755;DHT22;7469;50.906;6.952;2022-12-29T04:36:41;11.80;99.90
14755;DHT22;7469;50.906;6.952;2022-12-29T04:39:09;11.80;99.90
14755;DHT22;7469;50.906;6.952;2022-12-29T04:41:38;11.80;99.90
14755;DHT22;7469;50.906;6.952;2022-12-29T04:44:06;11.80;99.90
14755;DHT22;7469;50.906;6.952;2022-12-29T04:46:34;11.80;99.90
14755;DHT22;7469;50.906;6.952;2022-12-29T04:49:02;11.80;99.90
14755;DHT22;7469;50.906;6.952;2022-12-29T04:51:35;11.80;99.90
14755;DHT22;7469;50.906;6.952;2022-12-29T04:54:03;11.90;99.90
14755;DHT22;7469;50.906;6.952;2022-12-29T04:56:31;11.90;99.90
14755;DHT22;7469;50.906;6.952;2022-12-29T04:59:00;12.00;99.90
14755;DHT22;7469;50.906;6.952;2022-12-29T05:01:28;12.00;99.90
14755;DHT22;7469;50.906;6.952;2022-12-29T05:03:56;12.10;99.90
14755;DHT22;7469;50.906;6.952;2022-12-29T05:06:25;12.10;99.90
14755;DHT22;7469;50.906;6.952;2022-12-29T05:08:56;12.10;99.90
14755;DHT22;7469;50.906;6.952;2022-12-29T05:11:24;12.10;99.90
14755;DHT22;7469;50.906;6.952;2022-12-29T05:13:54;12.10;99.90
14755;DHT22;7469;50.906;6.952;2022-12-29T05:16:23;12.10;99.90
14755;DHT22;7469;50.906;6.952;2022-12-29T05:18:51;12.10;99.90
14755;DHT22;7469;50.906;6.952;2022-12-29T05:21:21;12.10;99.90
14755;DHT22;7469;50.906;6.952;2022-12-29T05:23:49;12.10;99.90
14755;DHT22;7469;50.906;6.952;2022-12-29T05:26:16;12.10;99.90
14755;DHT22;7469;50.906;6.952;2022-12-29T05:28:44;12.10;99.90
14755;DHT22;7469;50.906;6.952;2022-12-29T05:31:12;12.10;99.90
14755;DHT22;7469;50.906;6.952;2022-12-29T05:33:42;12.10;99.90
14755;DHT22;7469;50.906;6.952;2022-12-29T05:36:10;12.10;99.90
14755;DHT22;7469;50.906;6.952;2022-12-29T05:38:38;12.10;99.90
14755;DHT22;7469;50.906;6.952;2022-12-29T05:41:06;12.10;99.90
14755;DHT22;7469;50.906;6.952;2022-12-29T05:43:35;12.10;99.90
14755;DHT22;7469;50.906;6.952;2022-12-29T05:46:03;12.10;99.90
14755;DHT22;7469;50.906;6.952;2022-12-29T05:48:31;12.10;99.90
14755;DHT22;7469;50.906;6.952;2022-12-29T05:51:05;12.10;99.90
14755;DHT22;7469;50.906;6.952;2022-12-29T05:53:33;12.20;99.90
14755;DHT22;7469;50.906;6.952;2022-12-29T05:56:01;12.20;99.90
14755;DHT22;7469;50.906;6.952;2022-12-29T05:58:29;12.30;99.90
14755;DHT22;7469;50.906;6.952;2022-12-29T06:00:57;12.30;99.90
14755;DHT22;7469;50.906;6.952;2022-12-29T06:03:26;12.30;99.90
14755;DHT22;7469;50.906;6.952;2022-12-29T06:05:54;12.40;99.90
14755;DHT22;7469;50.906;6.952;2022-12-29T06:08:23;12.40;99.90
14755;DHT22;7469;50.906;6.952;2022-12-29T06:10:51;12.40;99.90
14755;DHT22;7469;50.906;6.952;2022-12-29T06:13:19;12.40;99.90
14755;DHT22;7469;50.906;6.952;2022-12-29T06:15:48;12.40;99.90
14755;DHT22;7469;50.906;6.952;2022-12-29T06:18:16;12.40;99.90
14755;DHT22;7469;50.906;6.952;2022-12-29T06:20:46;12.40;99.90
14755;DHT22;7469;50.906;6.952;2022-12-29T06:23:14;12.40;99.90
14755;DHT22;7469;50.906;6.952;2022-12-29T06:25:46;12.40;99.90
14755;DHT22;7469;50.906;6.952;2022-12-29T06:28:14;12.40;99.90
14755;DHT22;7469;50.906;6.952;2022-12-29T06:30:43;12.40;99.90
14755;DHT22;7469;50.906;6.952;2022-12-29T06:33:12;12.40;99.90
14755;DHT22;7469;50.906;6.952;2022-12-29T06:35:41;12.40;99.90
14755;DHT22;7469;50.906;6.952;2022-12-29T06:38:09;12.40;99.90
14755;DHT22;7469;50.906;6.952;2022-12-29T06:40:37;12.40;99.90
14755;DHT22;7469;50.906;6.952;2022-12-29T06:43:06;12.40;99.90
14755;DHT22;7469;50.906;6.952;2022-12-29T06:45:34;12.40;99.90
14755;DHT22;7469;50.906;6.952;2022-12-29T06:48:02;12.40;99.90
14755;DHT22;7469;50.906;6.952;2022-12-29T06:50:30;12.40;99.90
14755;DHT22;7469;50.906;6.952;2022-12-29T06:52:58;12.40;99.90
14755;DHT22;7469;50.906;6.952;2022-12-29T06:55:26;12.30;99.90
14755;DHT22;7469;50.906;6.952;2022-12-29T06:57:56;12.30;99.90
14755;DHT22;7469;50.906;6.952;2022-12-29T07:00:27;12.30;99.90
14755;DHT22;7469;50.906;6.952;2022-12-29T07:02:55;12.30;99.90
14755;DHT22;7469;50.906;6.952;2022-12-29T07:05:24;12.30;99.90
14755;DHT22;7469;50.906;6.952;2022-12-29T07:07:54;12.30;99.90
14755;DHT22;7469;50.906;6.952;2022-12-29T07:10:22;12.30;99.90
14755;DHT22;7469;50.906;6.952;2022-12-29T07:12:50;12.30;99.90
14755;DHT22;7469;50.906;6.952;2022-12-29T07:15:18;12.30;99.90
14755;DHT22;7469;50.906;6.952;2022-12-29T07:17:47;12.30;99.90
14755;DHT22;7469;50.906;6.952;2022-12-29T07:20:16;12.30;99.90
14755;DHT22;7469;50.906;6.952;2022-12-29T07:22:52;12.30;99.90
14755;DHT22;7469;50.906;6.952;2022-12-29T07:25:20;12.30;99.90
14755;DHT22;7469;50.906;6.952;2022-12-29T07:27:48;12.30;99.90
14755;DHT22;7469;50.906;6.952;2022-12-29T07:30:16;12.20;99.90
14755;DHT22;7469;50.906;6.952;2022-12-29T07:32:44;12.20;99.90
14755;DHT22;7469;50.906;6.952;2022-12-29T07:35:14;12.20;99.90
14755;DHT22;7469;50.906;6.952;2022-12-29T07:37:43;12.20;99.90
14755;DHT22;7469;50.906;6.952;2022-12-29T07:40:11;12.20;99.90
14755;DHT22;7469;50.906;6.952;2022-12-29T07:42:39;12.20;99.90
14755;DHT22;7469;50.906;6.952;2022-12-29T07:45:08;12.20;99.90
14755;DHT22;7469;50.906;6.952;2022-12-29T07:47:36;12.20;99.90
14755;DHT22;7469;50.906;6.952;2022-12-29T07:50:05;12.10;99.90
14755;DHT22;7469;50.906;6.952;2022-12-29T07:52:35;12.10;99.90
14755;DHT22;7469;50.906;6.952;2022-12-29T07:55:03;12.10;99.90
14755;DHT22;7469;50.906;6.952;2022-12-29T07:57:32;12.10;99.90
14755;DHT22;7469;50.906;6.952;2022-12-29T08:00:00;12.10;99.90
14755;DHT22;7469;50.906;6.952;2022-12-29T08:02:27;12.10;99.90
14755;DHT22;7469;50.906;6.952;2022-12-29T08:04:56;12.10;99.90
14755;DHT22;7469;50.906;6.952;2022-12-29T08:07:24;12.10;99.90
14755;DHT22;7469;50.906;6.952;2022-12-29T08:09:53;12.10;99.90
14755;DHT22;7469;50.906;6.952;2022-12-29T08:12:21;12.10;99.90
14755;DHT22;7469;50.906;6.952;2022-12-29T08:14:49;12.10;99.90
14755;DHT22;7469;50.906;6.952;2022-12-29T08:17:17;12.20;99.90
14755;DHT22;7469;50.906;6.952;2022-12-29T08:19:45;12.10;99.90
14755;DHT22;7469;50.906;6.952;2022-12-29T08:22:13;12.10;99.90
14755;DHT22;7469;50.906;6.952;2022-12-29T08:24:41;12.10;99.90
14755;DHT22;7469;50.906;6.952;2022-12-29T08:27:11;12.10;99.90
14755;DHT22;7469;50.906;6.952;2022-12-29T08:29:46;12.10;99.90
14755;DHT22;7469;50.906;6.952;2022-12-29T08:32:14;12.10;99.90
14755;DHT22;7469;50.906;6.952;2022-12-29T08:34:43;12.10;99.90
14755;DHT22;7469;50.906;6.952;2022-12-29T08:37:11;12.10;99.90
14755;DHT22;7469;50.906;6.952;2022-12-29T08:39:39;12.10;99.90
14755;DHT22;7469;50.906;6.952;2022-12-29T08:42:07;12.10;99.90
14755;DHT22;7469;50.906;6.952;2022-12-29T08:44:36;12.10;99.90
14755;DHT22;7469;50.906;6.952;2022-12-29T08:47:04;12.00;99.90
14755;DHT22;7469;50.906;6.952;2022-12-29T08:49:32;12.00;99.90
14755;DHT22;7469;50.906;6.952;2022-12-29T08:52:00;12.00;99.90
14755;DHT22;7469;50.906;6.952;2022-12-29T08:54:28;12.00;99.90
14755;DHT22;7469;50.906;6.952;2022-12-29T08:56:56;12.00;99.90
14755;DHT22;7469;50.906;6.952;2022-12-29T08:59:24;12.00;99.90
14755;DHT22;7469;50.906;6.952;2022-12-29T09:01:53;12.00;99.90
14755;DHT22;7469;50.906;6.952;2022-12-29T09:04:22;12.00;99.90
14755;DHT22;7469;50.906;6.952;2022-12-29T09:06:50;12.00;99.90
14755;DHT22;7469;50.906;6.952;2022-12-29T09:09:19;12.00;99.90
14755;DHT22;7469;50.906;6.952;2022-12-29T09:11:47;12.00;99.90
14755;DHT22;7469;50.906;6.952;2022-12-29T09:14:15;12.10;99.90
14755;DHT22;7469;50.906;6.952;2022-12-29T09:16:43;12.10;99.90
14755;DHT22;7469;50.906;6.952;2022-12-29T09:19:30;12.10;99.90
14755;DHT22;7469;50.906;6.952;2022-12-29T09:21:58;12.10;99.90
14755;DHT22;7469;50.906;6.952;2022-12-29T09:24:26;12.10;99.90
14755;DHT22;7469;50.906;6.952;2022-12-29T09:26:54;12.10;99.90
14755;DHT22;7469;50.906;6.952;2022-12-29T09:29:23;12.30;99.90
14755;DHT22;7469;50.906;6.952;2022-12-29T09:31:51;12.70;99.90
14755;DHT22;7469;50.906;6.952;2022-12-29T09:34:19;13.50;99.90
14755;DHT22;7469;50.906;6.952;2022-12-29T09:36:48;14.40;99.90
14755;DHT22;7469;50.906;6.952;2022-12-29T09:39:16;15.30;99.90
14755;DHT22;7469;50.906;6.952;2022-12-29T09:41:48;16.30;99.90
14755;DHT22;7469;50.906;6.952;2022-12-29T09:44:22;17.30;99.90
14755;DHT22;7469;50.906;6.952;2022-12-29T09:46:53;17.90;99.90
14755;DHT22;7469;50.906;6.952;2022-12-29T09:49:26;18.50;99.90
14755;DHT22;7469;50.906;6.952;2022-12-29T09:52:01;19.10;99.90
14755;DHT22;7469;50.906;6.952;2022-12-29T09:54:39;19.50;99.90
14755;DHT22;7469;50.906;6.952;2022-12-29T09:57:16;19.70;99.90
14755;DHT22;7469;50.906;6.952;2022-12-29T09:59:46;19.90;99.90
14755;DHT22;7469;50.906;6.952;2022-12-29T10:02:24;20.20;99.70
14755;DHT22;7469;50.906;6.952;2022-12-29T10:04:57;20.70;98.10
14755;DHT22;7469;50.906;6.952;2022-12-29T10:07:36;21.10;95.60
14755;DHT22;7469;50.906;6.952;2022-12-29T10:10:18;21.10;93.60
14755;DHT22;7469;50.906;6.952;2022-12-29T10:12:57;21.00;92.60
14755;DHT22;7469;50.906;6.952;2022-12-29T10:15:45;20.30;91.60
14755;DHT22;7469;50.906;6.952;2022-12-29T10:18:23;20.00;91.00
14755;DHT22;7469;50.906;6.952;2022-12-29T10:21:00;20.00;91.00
14755;DHT22;7469;50.906;6.952;2022-12-29T10:23:33;20.10;90.10
14755;DHT22;7469;50.906;6.952;2022-12-29T10:26:03;20.40;88.80
14755;DHT22;7469;50.906;6.952;2022-12-29T10:28:39;20.80;88.00
14755;DHT22;7469;50.906;6.952;2022-12-29T10:31:15;21.20;85.50
14755;DHT22;7469;50.906;6.952;2022-12-29T10:33:43;21.10;81.30
14755;DHT22;7469;50.906;6.952;2022-12-29T10:36:16;20.90;80.40
14755;DHT22;7469;50.906;6.952;2022-12-29T10:38:51;20.90;81.40
14755;DHT22;7469;50.906;6.952;2022-12-29T10:41:24;20.90;80.60
14755;DHT22;7469;50.906;6.952;2022-12-29T10:43:54;20.60;77.80
14755;DHT22;7469;50.906;6.952;2022-12-29T10:46:27;19.90;77.00
14755;DHT22;7469;50.906;6.952;2022-12-29T10:48:56;19.30;79.10
14755;DHT22;7469;50.906;6.952;2022-12-29T10:51:25;19.00;80.00
14755;DHT22;7469;50.906;6.952;2022-12-29T10:53:59;18.80;81.60
14755;DHT22;7469;50.906;6.952;2022-12-29T10:56:33;18.90;82.00
14755;DHT22;7469;50.906;6.952;2022-12-29T10:59:14;18.90;81.40
14755;DHT22;7469;50.906;6.952;2022-12-29T11:01:53;19.00;80.90
14755;DHT22;7469;50.906;6.952;2022-12-29T11:04:40;18.90;82.10
14755;DHT22;7469;50.906;6.952;2022-12-29T11:07:11;18.80;82.00
14755;DHT22;7469;50.906;6.952;2022-12-29T11:09:45;18.50;82.40
14755;DHT22;7469;50.906;6.952;2022-12-29T11:12:21;18.50;83.30
14755;DHT22;7469;50.906;6.952;2022-12-29T11:15:02;18.70;82.50
14755;DHT22;7469;50.906;6.952;2022-12-29T11:17:44;18.90;81.20
14755;DHT22;7469;50.906;6.952;2022-12-29T11:20:30;18.80;82.00
14755;DHT22;7469;50.906;6.952;2022-12-29T11:22:58;18.80;82.50
14755;DHT22;7469;50.906;6.952;2022-12-29T11:25:28;18.90;81.60
14755;DHT22;7469;50.906;6.952;2022-12-29T11:27:58;19.10;81.40
14755;DHT22;7469;50.906;6.952;2022-12-29T11:30:29;18.90;80.40
14755;DHT22;7469;50.906;6.952;2022-12-29T11:33:03;18.80;81.10
14755;DHT22;7469;50.906;6.952;2022-12-29T11:35:33;19.20;82.00
14755;DHT22;7469;50.906;6.952;2022-12-29T11:38:02;19.70;81.70
14755;DHT22;7469;50.906;6.952;2022-12-29T11:40:38;20.10;79.30
14755;DHT22;7469;50.906;6.952;2022-12-29T11:43:11;20.00;78.00
14755;DHT22;7469;50.906;6.952;2022-12-29T11:45:46;19.50;78.20
14755;DHT22;7469;50.906;6.952;2022-12-29T11:48:17;18.80;78.30
14755;DHT22;7469;50.906;6.952;2022-12-29T11:50:51;18.10;79.60
14755;DHT22;7469;50.906;6.952;2022-12-29T11:53:21;17.50;82.10
14755;DHT22;7469;50.906;6.952;2022-12-29T11:55:53;17.00;83.30
14755;DHT22;7469;50.906;6.952;2022-12-29T11:58:28;16.60;85.40
14755;DHT22;7469;50.906;6.952;2022-12-29T12:01:01;16.30;87.10
14755;DHT22;7469;50.906;6.952;2022-12-29T12:03:32;15.90;88.60
14755;DHT22;7469;50.906;6.952;2022-12-29T12:06:03;15.60;89.30
14755;DHT22;7469;50.906;6.952;2022-12-29T12:08:37;15.30;90.10
14755;DHT22;7469;50.906;6.952;2022-12-29T12:11:12;15.20;90.70
14755;DHT22;7469;50.906;6.952;2022-12-29T12:13:45;15.10;91.10
14755;DHT22;7469;50.906;6.952;2022-12-29T12:16:18;15.00;92.00
14755;DHT22;7469;50.906;6.952;2022-12-29T12:18:51;14.90;91.70
14755;DHT22;7469;50.906;6.952;2022-12-29T12:21:25;14.80;91.90
14755;DHT22;7469;50.906;6.952;2022-12-29T12:26:58;14.50;92.70
14755;DHT22;7469;50.906;6.952;2022-12-29T12:29:34;14.40;93.30
14755;DHT22;7469;50.906;6.952;2022-12-29T12:32:13;14.30;93.70
14755;DHT22;7469;50.906;6.952;2022-12-29T12:34:44;14.20;94.10
14755;DHT22;7469;50.906;6.952;2022-12-29T12:37:52;14.20;94.50
14755;DHT22;7469;50.906;6.952;2022-12-29T12:40:49;14.10;94.90
14755;DHT22;7469;50.906;6.952;2022-12-29T12:43:41;14.00;95.20
14755;DHT22;7469;50.906;6.952;2022-12-29T12:46:24;14.00;95.70
14755;DHT22;7469;50.906;6.952;2022-12-29T12:52:07;13.90;96.40
14755;DHT22;7469;50.906;6.952;2022-12-29T12:54:51;14.00;96.70
14755;DHT22;7469;50.906;6.952;2022-12-29T12:57:31;14.00;96.90
14755;DHT22;7469;50.906;6.952;2022-12-29T13:00:07;14.00;97.30
14755;DHT22;7469;50.906;6.952;2022-12-29T13:02:43;14.00;97.80
14755;DHT22;7469;50.906;6.952;2022-12-29T13:05:25;14.20;98.10
14755;DHT22;7469;50.906;6.952;2022-12-29T13:08:17;14.40;98.20
14755;DHT22;7469;50.906;6.952;2022-12-29T13:10:54;14.40;98.00
14755;DHT22;7469;50.906;6.952;2022-12-29T13:13:48;14.30;98.10
14755;DHT22;7469;50.906;6.952;2022-12-29T13:16:29;14.30;98.40
14755;DHT22;7469;50.906;6.952;2022-12-29T13:19:03;14.20;98.50
14755;DHT22;7469;50.906;6.952;2022-12-29T13:21:40;14.10;98.70
14755;DHT22;7469;50.906;6.952;2022-12-29T13:24:28;13.90;98.90
14755;DHT22;7469;50.906;6.952;2022-12-29T13:27:02;13.80;99.30
14755;DHT22;7469;50.906;6.952;2022-12-29T13:29:35;13.70;99.80
14755;DHT22;7469;50.906;6.952;2022-12-29T13:32:19;13.60;99.90
14755;DHT22;7469;50.906;6.952;2022-12-29T13:34:56;13.50;99.90
14755;DHT22;7469;50.906;6.952;2022-12-29T13:37:31;13.40;99.90
14755;DHT22;7469;50.906;6.952;2022-12-29T13:40:03;13.30;99.90
14755;DHT22;7469;50.906;6.952;2022-12-29T13:42:37;13.20;99.90
14755;DHT22;7469;50.906;6.952;2022-12-29T13:45:09;13.20;99.90
14755;DHT22;7469;50.906;6.952;2022-12-29T13:47:43;13.10;99.90
14755;DHT22;7469;50.906;6.952;2022-12-29T13:50:14;13.00;99.90
14755;DHT22;7469;50.906;6.952;2022-12-29T13:52:48;12.90;99.90
14755;DHT22;7469;50.906;6.952;2022-12-29T13:55:26;12.90;99.90
14755;DHT22;7469;50.906;6.952;2022-12-29T13:58:00;12.90;99.90
14755;DHT22;7469;50.906;6.952;2022-12-29T14:00:33;12.80;99.90
14755;DHT22;7469;50.906;6.952;2022-12-29T14:03:24;12.80;99.90
14755;DHT22;7469;50.906;6.952;2022-12-29T14:06:11;12.80;99.90
14755;DHT22;7469;50.906;6.952;2022-12-29T14:08:40;12.70;99.90
14755;DHT22;7469;50.906;6.952;2022-12-29T14:11:10;12.70;99.90
14755;DHT22;7469;50.906;6.952;2022-12-29T14:13:39;12.60;99.90
14755;DHT22;7469;50.906;6.952;2022-12-29T14:16:10;12.60;99.90
14755;DHT22;7469;50.906;6.952;2022-12-29T14:18:43;12.50;99.90
14755;DHT22;7469;50.906;6.952;2022-12-29T14:21:19;12.50;99.90
14755;DHT22;7469;50.906;6.952;2022-12-29T14:23:50;12.40;99.90
14755;DHT22;7469;50.906;6.952;2022-12-29T14:26:34;12.30;99.90
14755;DHT22;7469;50.906;6.952;2022-12-29T14:29:41;12.30;99.90
14755;DHT22;7469;50.906;6.952;2022-12-29T14:32:35;12.30;99.90
14755;DHT22;7469;50.906;6.952;2022-12-29T14:41:18;12.10;99.90
14755;DHT22;7469;50.906;6.952;2022-12-29T14:43:53;12.10;99.90
14755;DHT22;7469;50.906;6.952;2022-12-29T14:46:22;12.00;99.90
14755;DHT22;7469;50.906;6.952;2022-12-29T14:48:55;11.90;99.90
14755;DHT22;7469;50.906;6.952;2022-12-29T14:51:31;11.90;99.90
14755;DHT22;7469;50.906;6.952;2022-12-29T14:57:15;11.80;99.90
14755;DHT22;7469;50.906;6.952;2022-12-29T14:59:44;11.80;99.90
14755;DHT22;7469;50.906;6.952;2022-12-29T15:02:16;11.70;99.90
14755;DHT22;7469;50.906;6.952;2022-12-29T15:04:46;11.70;99.90
14755;DHT22;7469;50.906;6.952;2022-12-29T15:07:15;11.70;99.90
14755;DHT22;7469;50.906;6.952;2022-12-29T15:09:51;11.60;99.90
14755;DHT22;7469;50.906;6.952;2022-12-29T15:12:27;11.60;99.90
14755;DHT22;7469;50.906;6.952;2022-12-29T15:14:58;11.50;99.90
14755;DHT22;7469;50.906;6.952;2022-12-29T15:17:28;11.50;99.90
14755;DHT22;7469;50.906;6.952;2022-12-29T15:19:57;11.50;99.90
14755;DHT22;7469;50.906;6.952;2022-12-29T15:22:26;11.40;99.90
14755;DHT22;7469;50.906;6.952;2022-12-29T15:24:56;11.30;99.90
14755;DHT22;7469;50.906;6.952;2022-12-29T15:27:26;11.30;99.90
14755;DHT22;7469;50.906;6.952;2022-12-29T15:29:58;11.20;99.90
14755;DHT22;7469;50.906;6.952;2022-12-29T15:32:38;11.10;99.90
14755;DHT22;7469;50.906;6.952;2022-12-29T15:35:26;11.00;99.90
14755;DHT22;7469;50.906;6.952;2022-12-29T15:37:55;11.00;99.90
14755;DHT22;7469;50.906;6.952;2022-12-29T15:40:27;10.90;99.90
14755;DHT22;7469;50.906;6.952;2022-12-29T15:43:13;10.80;99.90
14755;DHT22;7469;50.906;6.952;2022-12-29T15:45:44;10.80;99.90
14755;DHT22;7469;50.906;6.952;2022-12-29T15:48:17;10.70;99.90
14755;DHT22;7469;50.906;6.952;2022-12-29T15:50:46;10.60;99.90
14755;DHT22;7469;50.906;6.952;2022-12-29T15:53:20;10.60;99.90
14755;DHT22;7469;50.906;6.952;2022-12-29T15:55:58;10.60;99.90
14755;DHT22;7469;50.906;6.952;2022-12-29T15:58:30;10.50;99.90
14755;DHT22;7469;50.906;6.952;2022-12-29T16:01:00;10.50;99.90
14755;DHT22;7469;50.906;6.952;2022-12-29T16:03:32;10.50;99.90
14755;DHT22;7469;50.906;6.952;2022-12-29T16:06:07;10.40;99.90
14755;DHT22;7469;50.906;6.952;2022-12-29T16:08:38;10.40;99.90
14755;DHT22;7469;50.906;6.952;2022-12-29T16:11:22;10.30;99.90
14755;DHT22;7469;50.906;6.952;2022-12-29T16:13:52;10.30;99.90
14755;DHT22;7469;50.906;6.952;2022-12-29T16:16:37;10.20;99.90
14755;DHT22;7469;50.906;6.952;2022-12-29T16:19:12;10.20;99.90
14755;DHT22;7469;50.906;6.952;2022-12-29T16:21:41;10.20;99.90
14755;DHT22;7469;50.906;6.952;2022-12-29T16:24:14;10.10;99.90
14755;DHT22;7469;50.906;6.952;2022-12-29T16:26:49;10.10;99.90
14755;DHT22;7469;50.906;6.952;2022-12-29T16:29:19;10.10;99.90
14755;DHT22;7469;50.906;6.952;2022-12-29T16:31:51;10.10;99.90
14755;DHT22;7469;50.906;6.952;2022-12-29T16:34:25;10.00;99.90
14755;DHT22;7469;50.906;6.952;2022-12-29T16:36:55;10.00;99.90
14755;DHT22;7469;50.906;6.952;2022-12-29T16:39:33;10.00;99.90